Columbus, Georgia
Current Conditions -  °F | °C
As of 6:51 PM on Friday 24 Oct 2014 (Local Time) from KCSG Reporting Station
Clear Clear  
Wind Chill: 22°   Ceiling: Unl
Heat Index: 22°   Visibility: 10mi
Dew Point:   Wind: 3mph
Humidity: 38%   Direction: 350°N
Pressure: 30"   Gusts: NA
Location:  32.51°N, 84.93°W
Report Text: KCSG 242251Z 35003KT 10SM CLR 22/07 A3000 RMK AO2 SLP155 T02170067
Loading
Personal Weather Stations






























Interactive Weather Map
Tropical Storm Tracking
New forecast layout! Learn more

10-Day Weather Forecast

Advertisements
Track Severe Weather on mobile